createdAt,value
2019-01-22T00:00:22.641Z,-0.70
2019-01-22T00:02:51.466Z,-0.80
2019-01-22T00:05:19.972Z,-0.80
2019-01-22T00:07:48.374Z,-0.80
2019-01-22T00:10:16.959Z,-0.80
2019-01-22T00:12:45.436Z,-0.90
2019-01-22T00:15:14.409Z,-0.90
2019-01-22T00:17:43.193Z,-0.90
2019-01-22T00:20:13.566Z,-1.00
2019-01-22T00:22:42.011Z,-1.00
2019-01-22T00:25:12.165Z,-1.00
2019-01-22T00:27:40.826Z,-1.00
2019-01-22T00:30:14.971Z,-0.90
2019-01-22T00:32:43.429Z,-0.90
2019-01-22T00:35:12.041Z,-0.80
2019-01-22T00:37:40.516Z,-0.80
2019-01-22T00:40:11.505Z,-0.80
2019-01-22T00:42:39.984Z,-0.70
2019-01-22T00:45:08.668Z,-0.70
2019-01-22T00:47:37.190Z,-0.70
2019-01-22T00:50:09.278Z,-0.70
2019-01-22T00:52:37.770Z,-0.80
2019-01-22T00:55:09.637Z,-0.80
2019-01-22T00:57:38.185Z,-0.80
2019-01-22T01:00:09.717Z,-0.80
2019-01-22T01:02:38.226Z,-0.80
2019-01-22T01:05:08.117Z,-0.80
2019-01-22T01:07:36.621Z,-0.80
2019-01-22T01:10:08.863Z,-0.80
2019-01-22T01:12:37.672Z,-1.10
2019-01-22T01:15:08.824Z,-1.20
2019-01-22T01:17:37.237Z,-1.10
2019-01-22T01:20:14.435Z,-1.10
2019-01-22T01:22:43.018Z,-1.10
2019-01-22T01:25:14.923Z,-1.10
2019-01-22T01:27:43.591Z,-1.10
2019-01-22T01:30:15.035Z,-1.10
2019-01-22T01:32:43.504Z,-1.10
2019-01-22T01:35:12.084Z,-1.10
2019-01-22T01:37:40.591Z,-0.90
2019-01-22T01:40:12.390Z,-0.90
2019-01-22T01:42:40.870Z,-0.90
2019-01-22T01:45:09.967Z,-0.90
2019-01-22T01:47:38.365Z,-0.90
2019-01-22T01:50:12.321Z,-1.00
2019-01-22T01:52:40.740Z,-1.00
2019-01-22T01:55:11.075Z,-0.90
2019-01-22T01:57:39.521Z,-1.00
2019-01-22T02:00:13.526Z,-1.00
2019-01-22T02:02:42.016Z,-1.00
2019-01-22T02:05:10.448Z,-1.10
2019-01-22T02:07:38.930Z,-1.00
2019-01-22T02:10:10.993Z,-1.00
2019-01-22T02:12:45.453Z,-1.00
2019-01-22T02:15:19.619Z,-1.00
2019-01-22T02:18:00.265Z,-1.00
2019-01-22T02:20:43.676Z,-1.00
2019-01-22T02:23:15.270Z,-1.00
2019-01-22T02:25:55.555Z,-1.00
2019-01-22T02:28:29.749Z,-1.00
2019-01-22T02:31:18.688Z,-1.00
2019-01-22T02:33:56.412Z,-1.00
2019-01-22T02:36:31.100Z,-0.90
2019-01-22T02:39:20.736Z,-0.90
2019-01-22T02:41:55.104Z,-0.90
2019-01-22T02:44:29.291Z,-0.80
2019-01-22T02:47:03.789Z,-0.80
2019-01-22T02:49:53.977Z,-0.80
2019-01-22T02:52:37.565Z,-0.80
2019-01-22T02:55:11.894Z,-0.80
2019-01-22T02:58:14.900Z,-0.80
2019-01-22T03:00:58.228Z,-0.70
2019-01-22T03:03:35.481Z,-0.80
2019-01-22T03:06:09.633Z,-0.90
2019-01-22T03:09:02.301Z,-1.00
2019-01-22T03:11:36.329Z,-1.00
2019-01-22T03:14:10.708Z,-1.10
2019-01-22T03:16:53.832Z,-1.10
2019-01-22T03:19:30.797Z,-1.10
2019-01-22T03:22:05.009Z,-1.20
2019-01-22T03:24:48.544Z,-1.20
2019-01-22T03:27:41.013Z,-1.20
2019-01-22T03:30:21.154Z,-1.10
2019-01-22T03:32:55.606Z,-1.10
2019-01-22T03:35:39.210Z,-1.10
2019-01-22T03:38:33.634Z,-1.10
2019-01-22T03:41:25.832Z,-1.00
2019-01-22T03:44:09.252Z,-1.00
2019-01-22T03:46:40.933Z,-1.10
2019-01-22T03:49:15.216Z,-1.00
2019-01-22T03:51:55.606Z,-1.10
2019-01-22T03:54:45.054Z,-1.10
2019-01-22T03:57:22.654Z,-1.00
2019-01-22T03:59:51.054Z,-1.00
2019-01-22T04:02:20.283Z,-1.00
2019-01-22T04:04:48.711Z,-1.10
2019-01-22T04:07:17.139Z,-1.10
2019-01-22T04:09:46.191Z,-1.00
2019-01-22T04:12:14.684Z,-1.00
2019-01-22T04:14:43.086Z,-1.00
2019-01-22T04:17:11.521Z,-1.00
2019-01-22T04:19:41.467Z,-1.00
2019-01-22T04:22:12.275Z,-1.00
2019-01-22T04:24:43.754Z,-1.00
2019-01-22T04:27:27.289Z,-1.10
2019-01-22T04:29:58.814Z,-1.00
2019-01-22T04:32:30.498Z,-1.00
2019-01-22T04:35:11.049Z,-1.10
2019-01-22T04:38:02.141Z,-1.10
2019-01-22T04:40:48.512Z,-1.00
2019-01-22T04:43:31.977Z,-1.00
2019-01-22T04:46:06.507Z,-1.10
2019-01-22T04:48:56.250Z,-1.00
2019-01-22T04:51:42.988Z,-1.00
2019-01-22T04:54:20.377Z,-1.00
2019-01-22T04:56:58.078Z,-1.10
2019-01-22T04:59:59.679Z,-1.20
2019-01-22T05:02:39.730Z,-1.20
2019-01-22T05:05:22.953Z,-1.10
2019-01-22T05:08:00.433Z,-1.10
2019-01-22T05:10:58.781Z,-1.10
2019-01-22T05:13:33.007Z,-1.20
2019-01-22T05:16:19.757Z,-1.20
2019-01-22T05:18:54.754Z,-1.30
2019-01-22T05:21:38.401Z,-1.30
2019-01-22T05:24:26.714Z,-1.30
2019-01-22T05:27:16.387Z,-1.20
2019-01-22T05:30:04.224Z,-1.30
2019-01-22T05:32:38.420Z,-1.30
2019-01-22T05:35:18.089Z,-1.40
2019-01-22T05:37:49.607Z,-1.30
2019-01-22T05:40:30.285Z,-1.40
2019-01-22T05:43:17.239Z,-1.60
2019-01-22T05:45:54.569Z,-1.60
2019-01-22T05:48:35.334Z,-1.80
2019-01-22T05:51:15.483Z,-1.80
2019-01-22T05:53:52.894Z,-1.90
2019-01-22T05:56:39.394Z,-1.80
2019-01-22T05:59:32.104Z,-1.80
2019-01-22T06:02:06.900Z,-1.90
2019-01-22T06:04:47.231Z,-1.90
2019-01-22T06:07:30.784Z,-1.90
2019-01-22T06:10:02.324Z,-1.90
2019-01-22T06:12:59.520Z,-2.00
2019-01-22T06:15:37.141Z,-2.10
2019-01-22T06:18:19.802Z,-2.30
2019-01-22T06:21:06.250Z,-2.30
2019-01-22T06:23:40.409Z,-2.30
2019-01-22T06:26:17.590Z,-2.30
2019-01-22T06:28:54.782Z,-2.30
2019-01-22T06:31:46.934Z,-2.30
2019-01-22T06:34:23.993Z,-2.30
2019-01-22T06:37:07.919Z,-2.20
2019-01-22T06:39:42.365Z,-2.20
2019-01-22T06:42:17.164Z,-2.10
2019-01-22T06:44:48.653Z,-2.10
2019-01-22T06:47:23.583Z,-2.00
2019-01-22T06:49:55.521Z,-1.80
2019-01-22T06:52:46.302Z,-1.90
2019-01-22T06:55:17.779Z,-2.00
2019-01-22T06:57:55.233Z,-2.10
2019-01-22T07:00:49.175Z,-2.00
2019-01-22T07:03:32.573Z,-1.90
2019-01-22T07:06:09.703Z,-1.80
2019-01-22T07:09:06.937Z,-1.80
2019-01-22T07:11:44.041Z,-1.90
2019-01-22T07:14:36.427Z,-2.00
2019-01-22T07:17:32.234Z,-1.90
2019-01-22T07:20:15.505Z,-1.90
2019-01-22T07:22:49.519Z,-1.80
2019-01-22T07:25:26.695Z,-1.70
2019-01-22T07:28:17.814Z,-1.70
2019-01-22T07:30:57.365Z,-1.70
2019-01-22T07:33:31.578Z,-1.70
2019-01-22T07:36:18.103Z,-1.70
2019-01-22T07:38:52.659Z,-1.70
2019-01-22T07:41:36.335Z,-1.60
2019-01-22T07:44:10.657Z,-1.80
2019-01-22T07:47:14.205Z,-1.90
2019-01-22T07:49:51.627Z,-2.00
2019-01-22T07:52:39.667Z,-2.20
2019-01-22T07:55:22.517Z,-2.20
2019-01-22T07:58:02.853Z,-2.30
2019-01-22T08:00:47.034Z,-2.30
2019-01-22T08:03:53.453Z,-2.10
2019-01-22T08:06:33.100Z,-2.10
2019-01-22T08:09:10.596Z,-2.20
2019-01-22T08:11:54.152Z,-2.30
2019-01-22T08:14:42.353Z,-2.20
2019-01-22T08:17:19.664Z,-2.20
2019-01-22T08:20:21.419Z,-2.10
2019-01-22T08:22:58.865Z,-2.00
2019-01-22T08:25:48.414Z,-1.90
2019-01-22T08:28:34.706Z,-1.80
2019-01-22T08:31:18.045Z,-2.00
2019-01-22T08:34:01.500Z,-2.10
2019-01-22T08:36:35.688Z,-2.20
2019-01-22T08:39:31.448Z,-2.40
2019-01-22T08:42:08.365Z,-2.50
2019-01-22T08:44:51.629Z,-2.60
2019-01-22T08:47:32.225Z,-2.60
2019-01-22T08:50:15.516Z,-2.60
2019-01-22T08:52:50.186Z,-2.50
2019-01-22T08:55:27.717Z,-2.50
2019-01-22T08:58:14.405Z,-2.40
2019-01-22T09:01:09.703Z,-2.40
2019-01-22T09:03:44.257Z,-2.40
2019-01-22T09:06:21.880Z,-2.40
2019-01-22T09:09:01.642Z,-2.40
2019-01-22T09:11:54.714Z,-2.20
2019-01-22T09:14:35.012Z,-2.10
2019-01-22T09:17:33.417Z,-2.10
2019-01-22T09:20:13.816Z,-2.10
2019-01-22T09:22:54.378Z,-2.10
2019-01-22T09:25:28.722Z,-2.00
2019-01-22T09:28:19.669Z,-2.10
2019-01-22T09:31:00.196Z,-2.10
2019-01-22T09:33:37.201Z,-2.10
2019-01-22T09:36:11.387Z,-1.90
2019-01-22T09:38:39.889Z,-1.80
2019-01-22T09:41:08.320Z,-1.70
2019-01-22T09:43:36.745Z,-1.60
2019-01-22T09:46:05.635Z,-1.50
2019-01-22T09:48:34.052Z,-1.50
2019-01-22T09:51:02.449Z,-1.30
2019-01-22T09:53:30.881Z,-1.30
2019-01-22T09:56:00.715Z,-1.30
2019-01-22T09:58:29.624Z,-1.20
2019-01-22T10:00:58.040Z,-1.10
2019-01-22T10:03:26.447Z,-1.10
2019-01-22T10:05:55.243Z,-1.20
2019-01-22T10:08:23.749Z,-1.20
2019-01-22T10:10:52.154Z,-1.10
2019-01-22T10:13:20.630Z,-1.00
2019-01-22T10:15:49.174Z,-1.00
2019-01-22T10:18:17.589Z,-1.00
2019-01-22T10:20:46.042Z,-0.90
2019-01-22T10:23:14.600Z,-1.00
2019-01-22T10:25:43.034Z,-1.00
2019-01-22T10:28:11.826Z,-1.00
2019-01-22T10:30:40.214Z,-1.00
2019-01-22T10:33:09.075Z,-1.10
2019-01-22T10:35:37.574Z,-1.10
2019-01-22T10:38:06.009Z,-1.20
2019-01-22T10:40:34.518Z,-1.20
2019-01-22T10:43:09.002Z,-1.10
2019-01-22T10:45:33.083Z,-1.10
2019-01-22T10:48:01.594Z,-1.00
2019-01-22T10:50:29.990Z,-0.90
2019-01-22T10:52:58.424Z,-0.80
2019-01-22T10:55:26.837Z,-0.80
2019-01-22T10:57:55.261Z,-1.10
2019-01-22T11:00:29.727Z,-1.10
2019-01-22T11:02:58.217Z,-1.20
2019-01-22T11:05:32.287Z,-1.20
2019-01-22T11:08:00.707Z,-1.10
2019-01-22T11:10:29.129Z,-1.00
2019-01-22T11:12:57.639Z,-0.90
2019-01-22T11:15:28.068Z,-0.80
2019-01-22T11:17:56.230Z,-0.80
2019-01-22T11:20:29.115Z,-0.90
2019-01-22T11:22:57.553Z,-0.90
2019-01-22T11:25:28.948Z,-0.90
2019-01-22T11:27:57.447Z,-1.10
2019-01-22T11:30:26.007Z,-1.20
2019-01-22T11:32:54.414Z,-1.50
2019-01-22T11:35:24.487Z,-1.60
2019-01-22T11:37:53.121Z,-1.60
2019-01-22T11:40:43.037Z,-1.60
2019-01-22T11:43:11.870Z,-1.60
2019-01-22T11:45:40.663Z,-1.60
2019-01-22T11:48:09.538Z,-1.50
2019-01-22T11:50:38.028Z,-1.30
2019-01-22T11:53:06.744Z,-1.40
2019-01-22T11:55:35.262Z,-1.40
2019-01-22T11:58:03.842Z,-1.50
2019-01-22T12:00:42.344Z,-1.50
2019-01-22T12:03:11.029Z,-1.30
2019-01-22T12:05:39.455Z,-1.20
2019-01-22T12:08:08.468Z,-1.10
2019-01-22T12:10:36.912Z,-1.10
2019-01-22T12:13:05.574Z,-1.10
2019-01-22T12:15:34.121Z,-1.00
2019-01-22T12:18:02.585Z,-1.30
2019-01-22T12:20:37.277Z,-1.30
2019-01-22T12:23:05.836Z,-1.20
2019-01-22T12:25:34.278Z,-1.30
2019-01-22T12:28:02.717Z,-1.20
2019-01-22T12:30:36.365Z,-1.20
2019-01-22T12:33:06.066Z,-1.10
2019-01-22T12:35:34.546Z,-1.00
2019-01-22T12:38:03.062Z,-1.00
2019-01-22T12:40:31.531Z,-1.10
2019-01-22T12:42:59.957Z,-1.10
2019-01-22T12:45:31.484Z,-1.20
2019-01-22T12:47:59.917Z,-1.30
2019-01-22T12:50:28.703Z,-1.40
2019-01-22T12:52:57.429Z,-1.40
2019-01-22T12:55:25.936Z,-1.30
2019-01-22T12:57:54.584Z,-1.20
2019-01-22T13:00:31.794Z,-1.00
2019-01-22T13:03:00.266Z,-0.90
2019-01-22T13:05:34.510Z,-0.90
2019-01-22T13:08:03.003Z,-0.70
2019-01-22T13:10:31.443Z,-0.70
2019-01-22T13:13:00.029Z,-0.70
2019-01-22T13:15:28.569Z,-0.60
2019-01-22T13:17:57.498Z,-0.70
2019-01-22T13:20:26.088Z,-0.60
2019-01-22T13:22:54.504Z,-0.70
2019-01-22T13:25:23.023Z,-0.80
2019-01-22T13:27:51.456Z,-0.80
2019-01-22T13:30:25.286Z,-0.90
2019-01-22T13:32:53.705Z,-0.90
2019-01-22T13:35:22.505Z,-1.10
2019-01-22T13:37:51.067Z,-1.30
2019-01-22T13:40:19.465Z,-1.40
2019-01-22T13:42:48.047Z,-1.30
2019-01-22T13:45:21.951Z,-1.10
2019-01-22T13:47:51.440Z,-0.80
2019-01-22T13:50:21.406Z,-0.70
2019-01-22T13:52:49.835Z,-0.60
2019-01-22T13:55:25.225Z,-0.40
2019-01-22T13:57:53.786Z,-0.70
2019-01-22T14:00:24.397Z,-1.00
2019-01-22T14:02:53.789Z,-1.20
2019-01-22T14:05:22.412Z,-1.20
2019-01-22T14:07:51.093Z,-1.10
2019-01-22T14:10:19.579Z,-1.00
2019-01-22T14:12:48.202Z,-1.10
2019-01-22T14:15:19.644Z,-1.20
2019-01-22T14:17:48.298Z,-1.00
2019-01-22T14:20:17.906Z,-0.90
2019-01-22T14:22:46.456Z,-0.90
2019-01-22T14:25:19.969Z,-1.10
2019-01-22T14:27:48.797Z,-1.30
2019-01-22T14:30:23.203Z,-1.40
2019-01-22T14:32:51.633Z,-1.50
2019-01-22T14:35:20.751Z,-1.40
2019-01-22T14:37:50.991Z,-1.30
2019-01-22T14:40:19.682Z,-1.30
2019-01-22T14:42:48.379Z,-1.30
2019-01-22T14:45:18.792Z,-1.40
2019-01-22T14:47:47.375Z,-1.50
2019-01-22T14:50:18.559Z,-1.50
2019-01-22T14:52:48.600Z,-1.50
2019-01-22T14:55:17.121Z,-1.50
2019-01-22T14:57:46.402Z,-1.30
2019-01-22T15:00:20.450Z,-1.10
2019-01-22T15:02:48.948Z,-1.00
2019-01-22T15:05:17.566Z,-0.90
2019-01-22T15:07:46.037Z,-0.90
2019-01-22T15:10:16.850Z,-1.00
2019-01-22T15:12:47.502Z,-1.20
2019-01-22T15:15:17.756Z,-1.30
2019-01-22T15:17:46.355Z,-1.30
2019-01-22T15:20:19.753Z,-1.40
2019-01-22T15:22:48.410Z,-1.40
2019-01-22T15:25:16.978Z,-1.40
2019-01-22T15:27:45.454Z,-1.30
2019-01-22T15:30:16.294Z,-1.40
2019-01-22T15:32:44.757Z,-1.60
2019-01-22T15:35:13.357Z,-1.70
2019-01-22T15:37:41.937Z,-1.60
2019-01-22T15:40:13.477Z,-1.50
2019-01-22T15:42:41.973Z,-1.50
2019-01-22T15:45:10.803Z,-1.40
2019-01-22T15:47:39.294Z,-1.50
2019-01-22T15:50:16.726Z,-1.70
2019-01-22T15:52:45.166Z,-1.80
2019-01-22T15:55:22.197Z,-1.70
2019-01-22T15:57:50.655Z,-1.70
2019-01-22T16:00:21.439Z,-1.70
2019-01-22T16:02:50.005Z,-1.70
2019-01-22T16:05:18.889Z,-1.60
2019-01-22T16:07:47.306Z,-1.50
2019-01-22T16:10:15.909Z,-1.50
2019-01-22T16:12:44.408Z,-1.50
2019-01-22T16:15:15.713Z,-1.50
2019-01-22T16:17:44.312Z,-1.50
2019-01-22T16:20:15.933Z,-1.60
2019-01-22T16:22:44.392Z,-1.60
2019-01-22T16:25:13.338Z,-1.60
2019-01-22T16:27:41.833Z,-1.60
2019-01-22T16:30:13.518Z,-1.50
2019-01-22T16:32:41.947Z,-1.60
2019-01-22T16:35:12.836Z,-1.50
2019-01-22T16:37:41.257Z,-1.50
2019-01-22T16:40:12.479Z,-1.50
2019-01-22T16:42:41.269Z,-1.50
2019-01-22T16:45:21.342Z,-1.50
2019-01-22T16:47:49.796Z,-1.60
2019-01-22T16:50:18.230Z,-1.80
2019-01-22T16:52:46.893Z,-1.90
2019-01-22T16:55:18.500Z,-1.90
2019-01-22T16:57:46.930Z,-1.80
2019-01-22T17:00:23.867Z,-1.80
2019-01-22T17:02:52.449Z,-1.80
2019-01-22T17:05:20.969Z,-1.70
2019-01-22T17:07:49.452Z,-1.70
2019-01-22T17:10:19.413Z,-1.70
2019-01-22T17:12:48.249Z,-1.50
2019-01-22T17:15:17.366Z,-1.30
2019-01-22T17:17:45.824Z,-1.20
2019-01-22T17:20:23.401Z,-1.20
2019-01-22T17:22:52.083Z,-1.30
2019-01-22T17:25:20.756Z,-1.30
2019-01-22T17:27:49.224Z,-1.30
2019-01-22T17:30:20.340Z,-1.20
2019-01-22T17:32:50.567Z,-1.10
2019-01-22T17:35:19.024Z,-1.20
2019-01-22T17:37:47.466Z,-1.30
2019-01-22T17:40:16.452Z,-1.40
2019-01-22T17:42:45.101Z,-1.40
2019-01-22T17:45:13.674Z,-1.50
2019-01-22T17:47:42.097Z,-1.50
2019-01-22T17:50:15.826Z,-1.40
2019-01-22T17:52:44.224Z,-1.60
2019-01-22T17:55:13.628Z,-1.70
2019-01-22T17:57:42.109Z,-1.70
2019-01-22T18:00:15.377Z,-1.80
2019-01-22T18:02:43.848Z,-1.80
2019-01-22T18:05:14.609Z,-1.90
2019-01-22T18:07:43.053Z,-1.80
2019-01-22T18:10:14.290Z,-1.70
2019-01-22T18:12:42.697Z,-1.70
2019-01-22T18:15:16.091Z,-1.60
2019-01-22T18:17:44.610Z,-1.50
2019-01-22T18:20:18.638Z,-1.50
2019-01-22T18:22:47.314Z,-1.50
2019-01-22T18:25:18.616Z,-1.60
2019-01-22T18:27:47.081Z,-1.60
2019-01-22T18:30:21.590Z,-1.60
2019-01-22T18:32:50.078Z,-1.60
2019-01-22T18:35:38.004Z,-1.60
2019-01-22T18:38:04.714Z,-1.60
2019-01-22T18:40:33.732Z,-1.60
2019-01-22T18:43:03.030Z,-1.70
2019-01-22T18:45:31.477Z,-1.70
2019-01-22T18:48:00.098Z,-1.80
2019-01-22T18:50:28.582Z,-1.80
2019-01-22T18:52:57.229Z,-2.00
2019-01-22T18:55:25.782Z,-2.00
2019-01-22T18:57:54.319Z,-1.90
2019-01-22T19:00:24.643Z,-2.00
2019-01-22T19:02:53.814Z,-2.00
2019-01-22T19:05:22.725Z,-2.10
2019-01-22T19:07:51.274Z,-2.00
2019-01-22T19:10:25.762Z,-2.00
2019-01-22T19:12:54.324Z,-2.00
2019-01-22T19:15:23.397Z,-1.90
2019-01-22T19:17:52.294Z,-2.10
2019-01-22T19:20:20.825Z,-2.20
2019-01-22T19:22:49.336Z,-2.10
2019-01-22T19:25:26.262Z,-2.10
2019-01-22T19:27:54.789Z,-2.20
2019-01-22T19:30:31.445Z,-2.30
2019-01-22T19:32:59.869Z,-2.50
2019-01-22T19:35:28.357Z,-2.60
2019-01-22T19:37:56.845Z,-2.50
2019-01-22T19:40:25.266Z,-2.40
2019-01-22T19:42:53.709Z,-2.30
2019-01-22T19:45:27.720Z,-2.50
2019-01-22T19:47:56.135Z,-2.40
2019-01-22T19:50:24.545Z,-2.40
2019-01-22T19:52:53.002Z,-2.50
2019-01-22T19:55:21.496Z,-2.50
2019-01-22T19:57:49.980Z,-2.60
2019-01-22T20:00:30.645Z,-2.70
2019-01-22T20:02:59.638Z,-2.70
2019-01-22T20:05:29.712Z,-2.70
2019-01-22T20:07:58.163Z,-2.80
2019-01-22T20:10:26.559Z,-2.70
2019-01-22T20:12:55.058Z,-2.60
2019-01-22T20:15:23.930Z,-2.50
2019-01-22T20:17:52.349Z,-2.50
2019-01-22T20:20:21.206Z,-2.60
2019-01-22T20:22:49.641Z,-2.60
2019-01-22T20:25:18.510Z,-2.70
2019-01-22T20:27:48.208Z,-2.50
2019-01-22T20:30:20.107Z,-2.50
2019-01-22T20:32:48.680Z,-2.50
2019-01-22T20:35:17.081Z,-2.60
2019-01-22T20:37:45.508Z,-2.60
2019-01-22T20:40:15.304Z,-2.50
2019-01-22T20:42:43.798Z,-2.50
2019-01-22T20:45:20.901Z,-2.50
2019-01-22T20:47:49.337Z,-2.50
2019-01-22T20:50:19.470Z,-2.60
2019-01-22T20:52:48.141Z,-2.70
2019-01-22T20:55:19.080Z,-2.70
2019-01-22T20:57:47.563Z,-2.70
2019-01-22T21:00:21.131Z,-2.70
2019-01-22T21:02:50.669Z,-2.80
2019-01-22T21:05:21.137Z,-2.80
2019-01-22T21:07:49.919Z,-2.90
2019-01-22T21:10:23.638Z,-2.80
2019-01-22T21:12:52.090Z,-2.70
2019-01-22T21:15:20.530Z,-2.60
2019-01-22T21:17:48.974Z,-2.60
2019-01-22T21:20:19.969Z,-2.70
2019-01-22T21:22:48.487Z,-2.70
2019-01-22T21:25:19.648Z,-2.70
2019-01-22T21:27:48.129Z,-2.80
2019-01-22T21:30:19.681Z,-2.80
2019-01-22T21:32:48.422Z,-2.80
2019-01-22T21:35:16.858Z,-2.70
2019-01-22T21:37:45.272Z,-2.80
2019-01-22T21:40:14.965Z,-2.80
2019-01-22T21:42:43.681Z,-2.80
2019-01-22T21:45:18.489Z,-2.80
2019-01-22T21:47:46.965Z,-2.80
2019-01-22T21:50:16.457Z,-2.70
2019-01-22T21:52:45.086Z,-2.70
2019-01-22T21:55:18.790Z,-2.70
2019-01-22T21:57:47.262Z,-2.70
2019-01-22T22:00:21.137Z,-2.70
2019-01-22T22:02:49.642Z,-2.60
2019-01-22T22:05:20.393Z,-2.70
2019-01-22T22:07:48.889Z,-2.70
2019-01-22T22:10:24.634Z,-2.70
2019-01-22T22:12:53.144Z,-2.70
2019-01-22T22:15:24.090Z,-2.60
2019-01-22T22:17:52.517Z,-2.60
2019-01-22T22:20:21.326Z,-2.70
2019-01-22T22:22:49.761Z,-2.80
2019-01-22T22:25:20.535Z,-2.80
2019-01-22T22:27:48.967Z,-2.80
2019-01-22T22:30:28.928Z,-2.80
2019-01-22T22:32:58.645Z,-2.60
2019-01-22T22:35:27.393Z,-2.50
2019-01-22T22:37:56.041Z,-2.60
2019-01-22T22:40:24.517Z,-2.60
2019-01-22T22:42:52.946Z,-2.60
2019-01-22T22:45:25.405Z,-2.70
2019-01-22T22:47:53.940Z,-2.80
2019-01-22T22:50:30.882Z,-2.80
2019-01-22T22:52:59.364Z,-2.80
2019-01-22T22:55:27.769Z,-2.80
2019-01-22T22:57:56.208Z,-2.70
2019-01-22T23:00:36.774Z,-2.60
2019-01-22T23:03:06.230Z,-2.70
2019-01-22T23:05:35.769Z,-2.90
2019-01-22T23:08:04.783Z,-3.10
2019-01-22T23:10:33.469Z,-3.10
2019-01-22T23:13:01.953Z,-3.00
2019-01-22T23:15:30.635Z,-3.00
2019-01-22T23:17:59.437Z,-2.90
2019-01-22T23:20:27.863Z,-2.90
2019-01-22T23:22:56.298Z,-3.00
2019-01-22T23:25:24.704Z,-2.90
2019-01-22T23:27:53.184Z,-3.00
2019-01-22T23:30:21.834Z,-3.00
2019-01-22T23:32:50.349Z,-2.90
2019-01-22T23:35:18.860Z,-3.00
2019-01-22T23:37:47.289Z,-3.00
2019-01-22T23:40:16.790Z,-3.00
2019-01-22T23:42:45.317Z,-3.00
2019-01-22T23:45:15.072Z,-2.90
2019-01-22T23:47:43.777Z,-2.80
2019-01-22T23:50:14.847Z,-2.70
2019-01-22T23:52:43.387Z,-2.60
2019-01-22T23:55:12.128Z,-2.60
2019-01-22T23:57:40.641Z,-2.60
